createdAt,value
2022-10-23T00:01:11.624Z,101234.50
2022-10-23T00:06:05.697Z,101234.06
2022-10-23T00:10:59.958Z,101204.91
2022-10-23T00:20:46.392Z,101246.19
2022-10-23T00:25:40.697Z,101243.72
2022-10-23T00:30:34.277Z,101257.72
2022-10-23T00:35:27.877Z,101261.31
2022-10-23T00:40:22.069Z,101263.03
2022-10-23T00:45:20.212Z,101266.63
2022-10-23T00:50:16.992Z,101267.66
2022-10-23T00:55:11.624Z,101240.78
2022-10-23T01:00:06.648Z,101245.81
2022-10-23T01:05:00.182Z,101238.91
2022-10-23T01:10:06.294Z,101214.78
2022-10-23T01:15:11.467Z,101247.25
2022-10-23T01:20:25.699Z,101249.91
2022-10-23T01:25:41.722Z,101237.56
2022-10-23T01:30:36.432Z,101244.22
2022-10-23T01:35:46.585Z,101215.13
2022-10-23T01:40:49.043Z,101260.72
2022-10-23T01:45:47.114Z,101253.69
2022-10-23T01:50:44.696Z,101244.94
2022-10-23T02:00:41.175Z,101266.16
2022-10-23T02:05:35.772Z,101243.16
2022-10-23T02:11:05.402Z,101244.13
2022-10-23T02:16:20.685Z,101244.94
2022-10-23T02:21:18.931Z,101230.34
2022-10-23T02:26:48.659Z,101226.44
2022-10-23T02:31:40.797Z,101233.66
2022-10-23T02:36:33.715Z,101247.72
2022-10-23T02:42:00.629Z,101237.19
2022-10-23T02:46:53.524Z,101230.16
2022-10-23T02:52:11.540Z,101240.78
2022-10-23T02:57:14.612Z,101240.97
2022-10-23T03:02:14.282Z,101242.69
2022-10-23T03:07:12.613Z,101207.91
2022-10-23T03:12:25.524Z,101225.19
2022-10-23T03:17:18.905Z,101230.44
2022-10-23T03:22:12.365Z,101222.47
2022-10-23T03:27:06.201Z,101224.34
2022-10-23T03:31:59.530Z,101231.38
2022-10-23T03:36:53.204Z,101208.03
2022-10-23T03:41:47.257Z,101203.75
2022-10-23T03:46:42.165Z,101229.66
2022-10-23T03:51:36.345Z,101225.31
2022-10-23T03:56:30.844Z,101224.34
2022-10-23T04:01:23.505Z,101206.41
2022-10-23T04:06:16.323Z,101225.31
2022-10-23T04:11:11.067Z,101232.34
2022-10-23T04:16:11.957Z,101219.41
2022-10-23T04:21:04.861Z,101206.59
2022-10-23T04:26:00.595Z,101211.72
2022-10-23T04:30:54.223Z,101233.09
2022-10-23T04:35:47.124Z,101213.34
2022-10-23T04:40:40.753Z,101229.66
2022-10-23T04:45:34.837Z,101230.50
2022-10-23T04:50:27.531Z,101235.81
2022-10-23T04:55:52.717Z,101223.59
2022-10-23T05:00:52.985Z,101220.66
2022-10-23T05:05:50.265Z,101233.16
2022-10-23T05:11:01.849Z,101232.44
2022-10-23T05:15:55.933Z,101215.34
2022-10-23T05:21:22.739Z,101218.72
2022-10-23T05:26:16.853Z,101217.78
2022-10-23T05:31:13.286Z,101222.16
2022-10-23T05:36:09.945Z,101250.94
2022-10-23T05:41:03.933Z,101237.34
2022-10-23T05:45:56.276Z,101263.94
2022-10-23T05:50:52.313Z,101243.78
2022-10-23T05:55:51.152Z,101241.50
2022-10-23T06:01:09.752Z,101273.69
2022-10-23T06:06:26.807Z,101269.00
2022-10-23T06:11:20.314Z,101267.44
2022-10-23T06:16:27.421Z,101263.28
2022-10-23T06:21:21.112Z,101289.06
2022-10-23T06:26:17.693Z,101300.63
2022-10-23T06:31:34.838Z,101270.63
2022-10-23T06:36:31.478Z,101262.09
2022-10-23T06:41:32.861Z,101293.88
2022-10-23T06:46:47.911Z,101316.91
2022-10-23T06:52:18.339Z,101305.50
2022-10-23T06:57:26.712Z,101295.00
2022-10-23T07:02:21.443Z,101301.84
2022-10-23T07:07:15.176Z,101299.72
2022-10-23T07:12:14.352Z,101317.13
2022-10-23T07:17:14.084Z,101343.06
2022-10-23T07:22:08.073Z,101343.28
2022-10-23T07:27:10.089Z,101322.66
2022-10-23T07:32:05.029Z,101305.94
2022-10-23T07:37:18.772Z,101310.66
2022-10-23T07:42:16.127Z,101337.81
2022-10-23T07:47:26.330Z,101346.03
2022-10-23T07:52:23.103Z,101347.09
2022-10-23T07:57:41.050Z,101336.63
2022-10-23T08:02:53.924Z,101357.63
2022-10-23T08:07:58.149Z,101374.91
2022-10-23T08:12:54.366Z,101358.41
2022-10-23T08:18:10.496Z,101357.59
2022-10-23T08:23:18.679Z,101343.78
2022-10-23T08:28:18.816Z,101378.97
2022-10-23T08:33:26.558Z,101356.94
2022-10-23T08:38:23.781Z,101375.88
2022-10-23T08:43:40.720Z,101369.00
2022-10-23T08:49:32.783Z,101369.78
2022-10-23T08:54:58.146Z,101353.25
2022-10-23T09:00:03.678Z,101357.25
2022-10-23T09:05:02.085Z,101363.50
2022-10-23T09:10:26.142Z,101364.84
2022-10-23T09:15:51.404Z,101363.06
2022-10-23T09:20:58.247Z,101367.50
2022-10-23T09:26:00.111Z,101350.72
2022-10-23T09:31:13.394Z,101341.78
2022-10-23T09:36:23.613Z,101371.59
2022-10-23T09:41:31.649Z,101389.28
2022-10-23T09:46:38.644Z,101381.22
2022-10-23T09:51:37.056Z,101375.03
2022-10-23T09:56:36.083Z,101384.06
2022-10-23T10:01:33.212Z,101382.91
2022-10-23T10:07:06.758Z,101379.31
2022-10-23T10:12:27.408Z,101380.25
2022-10-23T10:17:39.725Z,101382.75
2022-10-23T10:22:49.033Z,101386.16
2022-10-23T10:27:46.551Z,101368.88
2022-10-23T10:33:18.429Z,101390.44
2022-10-23T10:38:39.643Z,101385.13
2022-10-23T10:43:55.106Z,101396.63
2022-10-23T10:49:33.476Z,101379.31
2022-10-23T10:55:10.467Z,101380.53
2022-10-23T11:00:39.948Z,101362.56
2022-10-23T11:05:38.280Z,101366.34
2022-10-23T11:10:33.784Z,101357.63
2022-10-23T11:15:35.055Z,101354.28
2022-10-23T11:20:57.523Z,101357.97
2022-10-23T11:26:27.982Z,101350.16
2022-10-23T11:32:18.699Z,101341.53
2022-10-23T11:37:18.354Z,101332.88
2022-10-23T11:42:29.686Z,101331.94
2022-10-23T11:47:36.331Z,101341.63
2022-10-23T11:52:31.446Z,101301.69
2022-10-23T11:57:25.842Z,101323.19
2022-10-23T12:02:32.784Z,101308.28
2022-10-23T12:07:25.233Z,101310.09
2022-10-23T12:12:29.171Z,101301.34
2022-10-23T12:17:23.869Z,101307.50
2022-10-23T12:22:20.883Z,101270.06
2022-10-23T12:27:31.018Z,101282.75
2022-10-23T12:32:38.939Z,101277.59
2022-10-23T12:37:55.125Z,101256.03
2022-10-23T12:42:54.841Z,101268.69
2022-10-23T12:47:50.871Z,101231.97
2022-10-23T12:53:01.684Z,101259.94
2022-10-23T12:57:55.771Z,101253.78
2022-10-23T13:03:02.336Z,101252.06
2022-10-23T13:07:56.700Z,101245.03
2022-10-23T13:13:05.227Z,101244.19
2022-10-23T13:17:58.684Z,101237.91
2022-10-23T13:23:00.823Z,101231.75
2022-10-23T13:28:21.453Z,101224.81
2022-10-23T13:33:28.052Z,101230.97
2022-10-23T13:38:38.794Z,101204.38
2022-10-23T13:43:34.692Z,101204.47
2022-10-23T13:48:32.317Z,101215.03
2022-10-23T13:53:26.198Z,101235.44
2022-10-23T13:58:19.543Z,101230.31
2022-10-23T14:03:12.648Z,101184.16
2022-10-23T14:08:07.433Z,101202.19
2022-10-23T14:13:01.277Z,101208.56
2022-10-23T14:17:58.991Z,101185.84
2022-10-23T14:22:54.676Z,101204.66
2022-10-23T14:27:48.610Z,101202.00
2022-10-23T14:32:42.639Z,101198.50
2022-10-23T14:37:36.893Z,101169.13
2022-10-23T14:42:34.198Z,101158.09
2022-10-23T14:47:27.961Z,101200.31
2022-10-23T14:52:21.336Z,101193.19
2022-10-23T14:57:21.370Z,101171.88
2022-10-23T15:02:16.211Z,101181.50
2022-10-23T15:07:09.296Z,101209.22
2022-10-23T15:12:03.433Z,101156.03
2022-10-23T15:17:01.148Z,101203.16
2022-10-23T15:21:54.996Z,101196.88
2022-10-23T15:26:48.944Z,101188.06
2022-10-23T15:31:47.700Z,101152.22
2022-10-23T15:36:41.561Z,101155.38
2022-10-23T15:41:36.633Z,101178.47
2022-10-23T15:46:29.893Z,101190.06
2022-10-23T15:51:23.524Z,101178.06
2022-10-23T15:56:16.382Z,101197.09
2022-10-23T16:01:10.066Z,101190.44
2022-10-23T16:06:09.477Z,101182.91
2022-10-23T16:11:03.784Z,101216.56
2022-10-23T16:15:57.144Z,101170.84
2022-10-23T16:20:55.640Z,101191.38
2022-10-23T16:25:48.652Z,101215.50
2022-10-23T16:30:47.769Z,101186.63
2022-10-23T16:35:41.854Z,101222.44
2022-10-23T16:40:42.287Z,101205.25
2022-10-23T16:46:12.496Z,101211.31
2022-10-23T16:51:26.647Z,101239.94
2022-10-23T16:56:23.964Z,101215.78
2022-10-23T17:01:19.609Z,101251.22
2022-10-23T17:06:14.513Z,101212.66
2022-10-23T17:11:32.532Z,101250.38
2022-10-23T17:16:29.179Z,101245.06
2022-10-23T17:21:24.802Z,101245.13
2022-10-23T17:26:21.949Z,101255.59
2022-10-23T17:31:21.178Z,101263.47
2022-10-23T17:36:15.818Z,101253.59
2022-10-23T17:41:09.750Z,101241.25
2022-10-23T17:46:05.760Z,101261.56
2022-10-23T17:51:10.259Z,101264.41
2022-10-23T17:56:08.249Z,101275.72
2022-10-23T18:01:09.211Z,101275.81
2022-10-23T18:06:14.331Z,101262.81
2022-10-23T18:11:08.220Z,101265.34
2022-10-23T18:16:05.916Z,101276.88
2022-10-23T18:21:01.316Z,101240.47
2022-10-23T18:25:54.803Z,101237.91
2022-10-23T18:30:51.128Z,101259.19
2022-10-23T18:35:47.060Z,101266.22
2022-10-23T18:40:41.358Z,101265.34
2022-10-23T18:45:39.969Z,101243.81
2022-10-23T18:50:39.208Z,101245.81
2022-10-23T19:00:27.866Z,101251.88
2022-10-23T19:05:21.949Z,101243.91
2022-10-23T19:10:18.725Z,101247.63
2022-10-23T19:15:18.394Z,101223.09
2022-10-23T19:20:15.649Z,101233.38
2022-10-23T19:25:39.908Z,101230.22
2022-10-23T19:30:34.696Z,101215.03
2022-10-23T19:35:28.154Z,101231.94
2022-10-23T19:40:21.562Z,101233.66
2022-10-23T19:45:15.740Z,101224.59
2022-10-23T19:50:11.035Z,101233.00
2022-10-23T19:55:05.006Z,101238.09
2022-10-23T19:59:57.940Z,101230.91
2022-10-23T20:04:52.249Z,101201.56
2022-10-23T20:09:46.261Z,101228.25
2022-10-23T20:14:40.089Z,101223.38
2022-10-23T20:19:34.964Z,101229.75
2022-10-23T20:24:28.436Z,101237.75
2022-10-23T20:29:22.843Z,101266.50
2022-10-23T20:34:16.788Z,101240.59
2022-10-23T20:39:12.856Z,101233.38
2022-10-23T20:44:08.750Z,101228.84
2022-10-23T20:49:02.511Z,101258.06
2022-10-23T20:53:56.047Z,101248.31
2022-10-23T20:58:50.198Z,101247.63
2022-10-23T21:03:43.447Z,101248.97
2022-10-23T21:08:36.564Z,101252.47
2022-10-23T21:13:31.001Z,101253.34
2022-10-23T21:18:44.811Z,101229.22
2022-10-23T21:23:39.484Z,101232.72
2022-10-23T21:28:33.031Z,101226.44
2022-10-23T21:33:29.690Z,101216.38
2022-10-23T21:38:24.164Z,101227.47
2022-10-23T21:43:17.781Z,101231.97
2022-10-23T21:48:11.191Z,101253.34
2022-10-23T21:53:03.883Z,101229.28
2022-10-23T21:57:58.145Z,101244.56
2022-10-23T22:02:52.182Z,101242.19
2022-10-23T22:08:05.137Z,101248.66
2022-10-23T22:12:59.061Z,101217.72
2022-10-23T22:17:56.608Z,101248.94
2022-10-23T22:22:50.423Z,101252.47
2022-10-23T22:27:48.536Z,101259.69
2022-10-23T22:32:43.552Z,101214.19
2022-10-23T22:37:37.850Z,101245.72
2022-10-23T22:42:31.670Z,101237.44
2022-10-23T22:47:25.532Z,101247.63
2022-10-23T22:52:19.276Z,101239.66
2022-10-23T22:57:12.594Z,101241.53
2022-10-23T23:02:45.306Z,101238.09
2022-10-23T23:07:54.357Z,101242.75
2022-10-23T23:12:47.191Z,101258.59
2022-10-23T23:17:40.502Z,101239.06
2022-10-23T23:22:34.709Z,101234.97
2022-10-23T23:27:28.564Z,101232.88
2022-10-23T23:32:22.100Z,101260.59
2022-10-23T23:37:15.712Z,101253.56
2022-10-23T23:42:09.372Z,101262.53
2022-10-23T23:47:03.260Z,101249.84
2022-10-23T23:51:57.089Z,101225.09
2022-10-23T23:56:51.123Z,101243.97
